Archival Weather

Chicago O'Hare International

Chicago, Illinois (KORD)

Report from: Tuesday, September 19, 2023 12:51 PM CDT
Current time: Saturday, September 30, 2023 9:54 PM CDT

Current weather
Weather history
Weather forecast

Present weatherLight rain
Temperature16.1°C (61.0°F)
Dew point13.3°C (55.9°F)
Winds 5 kts (2.6 m/s, 5.8 mph) South (180°)
Visibility8 mi. (12.9 km)
Clouds Few clouds 5,500 ft. (1,676 m)
Scattered clouds 9,000 ft. (2,743 m)
Ceiling: Overcast 11,000 ft. (3,353 m)
Altimeter30.03 in.Hg (1017 mB)
Precipitiation0.03 in. (1 mm)
Precip last 3 hours0.15 in. (4 mm)
Relative humidity83 %
Density altitude216 ft. (66 m)
Sea-level pressure101.7 kPa (1017 mB, 30.03 in.Hg)
Max temp last 6 hours16.1°C (61.0°F)
Min temp last 6 hours15.0°C (59.0°F)
Remarks Automated weather observing station with precipitation discriminator
Pressure falling more quickly
Flight conditions Visual Meteorological Conditions
Raw dataKORD 191751Z 18005KT 8SM -RA FEW055 SCT090 OVC110 16/13 A3003 RMK AO2 SLP170 P0003 60015 T01610133 10161 20150 58007
An error has occurred. This application may no longer respond until reloaded. Reload 🗙